Time;durP1;ratioP1;P1;durP2;ratioP2;P2;SDS_P1;SDS_P2;PMS_P1;PMS_P2;Temp;Humidity;BMP_temperature;BMP_pressure;BME280_temperature;BME280_humidity;BME280_pressure;Samples;Min_cycle;Max_cycle;Signal;HPM_P1;HPM_P2
2022/03/25 00:00:47;;;;;;;25.77;11.27;;;;;;;;;;5068415;28;20541;-53
2022/03/25 00:03:13;;;;;;;23.17;12.07;;;;;;;;;;5066519;28;20162;-54
2022/03/25 00:05:39;;;;;;;15.52;8.52;;;;;;;;;;5066959;28;20143;-52
2022/03/25 00:08:06;;;;;;;23.25;11.52;;;;;;;;;;5065247;28;20031;-56
2022/03/25 00:10:33;;;;;;;16.00;7.95;;;;;;;;;;5051586;28;20048;-55
2022/03/25 00:12:59;;;;;;;30.20;13.00;;;;;;;;;;5061851;28;20022;-57
2022/03/25 00:15:26;;;;;;;37.40;16.48;;;;;;;;;;5067498;28;20023;-52
2022/03/25 00:17:52;;;;;;;37.70;16.52;;;;;;;;;;5066795;28;20376;-54
2022/03/25 00:20:19;;;;;;;33.00;16.48;;;;;;;;;;5066990;28;20042;-51
2022/03/25 00:22:45;;;;;;;28.33;14.05;;;;;;;;;;5061958;28;20030;-53
2022/03/25 00:25:11;;;;;;;33.05;16.23;;;;;;;;;;5067937;28;20082;-58
2022/03/25 00:27:38;;;;;;;21.38;10.90;;;;;;;;;;5068718;28;20825;-55
2022/03/25 00:30:05;;;;;;;22.80;10.80;;;;;;;;;;5066469;28;20021;-57
2022/03/25 00:32:31;;;;;;;26.05;10.93;;;;;;;;;;5066408;28;20023;-55
2022/03/25 00:34:57;;;;;;;19.17;9.07;;;;;;;;;;5061101;28;20836;-56
2022/03/25 00:37:24;;;;;;;24.67;10.32;;;;;;;;;;5068982;28;20032;-55
2022/03/25 00:39:50;;;;;;;19.48;9.57;;;;;;;;;;5066859;28;20016;-56
2022/03/25 00:42:16;;;;;;;20.10;9.23;;;;;;;;;;5063195;28;20164;-53
2022/03/25 00:44:42;;;;;;;25.83;13.68;;;;;;;;;;5068259;28;20032;-53
2022/03/25 00:47:11;;;;;;;29.35;13.73;;;;;;;;;;5050753;28;20045;-54
2022/03/25 00:49:37;;;;;;;31.83;14.20;;;;;;;;;;5085499;28;20055;-53
2022/03/25 00:52:05;;;;;;;30.10;13.57;;;;;;;;;;5092028;28;20050;-54
2022/03/25 00:54:32;;;;;;;33.15;14.75;;;;;;;;;;5115624;28;20027;-56
2022/03/25 00:56:58;;;;;;;62.65;30.48;;;;;;;;;;5115770;28;20019;-55
2022/03/25 00:59:24;;;;;;;43.45;19.67;;;;;;;;;;5115810;28;20530;-55
2022/03/25 01:01:50;;;;;;;37.28;16.70;;;;;;;;;;5115599;28;20027;-58
2022/03/25 01:04:16;;;;;;;20.50;10.30;;;;;;;;;;5115234;28;20527;-56
2022/03/25 01:06:43;;;;;;;21.67;10.50;;;;;;;;;;5115463;28;20039;-56
2022/03/25 01:09:09;;;;;;;23.60;11.25;;;;;;;;;;5115506;28;20062;-57
2022/03/25 01:11:35;;;;;;;18.98;9.82;;;;;;;;;;5115253;28;20528;-56
2022/03/25 01:14:02;;;;;;;35.35;16.80;;;;;;;;;;5115253;28;20102;-54
2022/03/25 01:16:30;;;;;;;24.45;11.73;;;;;;;;;;5114994;28;20053;-55
2022/03/25 01:18:57;;;;;;;39.13;16.25;;;;;;;;;;5115526;28;20024;-55
2022/03/25 01:21:23;;;;;;;37.05;16.88;;;;;;;;;;5115450;28;20038;-54
2022/03/25 01:23:49;;;;;;;32.42;15.77;;;;;;;;;;5114954;28;20061;-57
2022/03/25 01:26:15;;;;;;;42.20;18.90;;;;;;;;;;5098757;28;20111;-56
2022/03/25 01:28:42;;;;;;;25.73;13.00;;;;;;;;;;5094783;28;20093;-55
2022/03/25 01:31:09;;;;;;;19.60;9.00;;;;;;;;;;5094468;28;20424;-57
2022/03/25 01:33:37;;;;;;;25.95;12.23;;;;;;;;;;5094737;28;20028;-57
2022/03/25 01:36:04;;;;;;;39.63;18.88;;;;;;;;;;5108712;28;20069;-57
2022/03/25 01:38:30;;;;;;;30.70;15.05;;;;;;;;;;5115062;28;20023;-57
2022/03/25 01:40:56;;;;;;;21.77;10.32;;;;;;;;;;5114890;28;20024;-55
2022/03/25 01:43:22;;;;;;;57.92;25.25;;;;;;;;;;5114703;28;20028;-57
2022/03/25 01:45:48;;;;;;;27.42;13.48;;;;;;;;;;5114472;28;20039;-58
2022/03/25 01:48:16;;;;;;;28.30;13.95;;;;;;;;;;5114449;28;20051;-57
2022/03/25 01:50:44;;;;;;;27.92;11.32;;;;;;;;;;5114421;28;20048;-58
2022/03/25 01:53:16;;;;;;;17.60;8.85;;;;;;;;;;5113850;28;20384;-57
2022/03/25 01:55:56;;;;;;;23.70;11.15;;;;;;;;;;5114329;28;20016;-57
2022/03/25 01:58:22;;;;;;;26.40;12.77;;;;;;;;;;5114543;28;20096;-57
2022/03/25 02:00:49;;;;;;;47.47;21.80;;;;;;;;;;5114514;28;20028;-55
2022/03/25 02:03:18;;;;;;;33.42;14.80;;;;;;;;;;5114649;28;20023;-55
2022/03/25 02:05:44;;;;;;;47.08;21.83;;;;;;;;;;5113902;28;20023;-55
2022/03/25 02:08:10;;;;;;;38.58;17.50;;;;;;;;;;5114300;28;20027;-54
2022/03/25 02:10:37;;;;;;;13.70;7.00;;;;;;;;;;5113164;28;20027;-55
2022/03/25 02:13:03;;;;;;;31.88;14.73;;;;;;;;;;5113546;28;20387;-56
2022/03/25 02:15:33;;;;;;;17.67;8.27;;;;;;;;;;5113099;28;20053;-57
2022/03/25 02:18:01;;;;;;;33.45;14.30;;;;;;;;;;5111058;28;20051;-51
2022/03/25 02:20:27;;;;;;;28.40;12.55;;;;;;;;;;5113457;28;20024;-53
2022/03/25 02:22:53;;;;;;;19.85;10.68;;;;;;;;;;5113326;28;20390;-58
2022/03/25 02:25:20;;;;;;;23.30;10.73;;;;;;;;;;5112945;28;20034;-55
2022/03/25 02:27:48;;;;;;;23.98;9.00;;;;;;;;;;5113171;28;20024;-56
2022/03/25 02:30:14;;;;;;;25.33;10.07;;;;;;;;;;5113502;28;20026;-57
2022/03/25 02:32:40;;;;;;;42.25;18.77;;;;;;;;;;5113202;28;20024;-54
2022/03/25 02:35:07;;;;;;;21.25;11.95;;;;;;;;;;5112625;28;20497;-55
2022/03/25 02:37:34;;;;;;;24.40;11.25;;;;;;;;;;5113698;28;20142;-57
2022/03/25 02:40:00;;;;;;;28.50;12.57;;;;;;;;;;5113771;28;20022;-54
2022/03/25 02:42:26;;;;;;;25.08;10.05;;;;;;;;;;5094867;28;20032;-55
2022/03/25 02:44:52;;;;;;;18.65;8.73;;;;;;;;;;5095177;28;20068;-58
2022/03/25 02:47:19;;;;;;;31.95;13.95;;;;;;;;;;5113636;28;20467;-62
2022/03/25 02:49:45;;;;;;;25.60;11.63;;;;;;;;;;5113677;28;20139;-55
2022/03/25 02:52:11;;;;;;;21.95;10.13;;;;;;;;;;5113517;28;20055;-59
2022/03/25 02:54:38;;;;;;;30.00;14.32;;;;;;;;;;5113542;28;20027;-53
2022/03/25 02:57:05;;;;;;;24.15;12.95;;;;;;;;;;5113586;28;20062;-54
2022/03/25 02:59:31;;;;;;;33.47;14.52;;;;;;;;;;5113653;28;20081;-52
2022/03/25 03:01:57;;;;;;;43.35;20.75;;;;;;;;;;5113764;28;20373;-54
2022/03/25 03:04:24;;;;;;;43.88;19.63;;;;;;;;;;5119266;28;20111;-55
2022/03/25 03:06:50;;;;;;;44.35;22.15;;;;;;;;;;5120227;28;20483;-56
2022/03/25 03:09:16;;;;;;;44.40;21.23;;;;;;;;;;5120526;28;20022;-55
2022/03/25 03:11:43;;;;;;;32.58;16.17;;;;;;;;;;5101627;28;20035;-55
2022/03/25 03:14:09;;;;;;;21.48;11.80;;;;;;;;;;5120302;28;20047;-56
2022/03/25 03:16:37;;;;;;;24.98;9.73;;;;;;;;;;5119848;28;20023;-56
2022/03/25 03:19:04;;;;;;;26.10;12.82;;;;;;;;;;5120478;28;20040;-57
2022/03/25 03:21:31;;;;;;;27.90;11.85;;;;;;;;;;5120176;28;20128;-57
2022/03/25 03:23:58;;;;;;;21.05;11.82;;;;;;;;;;5120229;28;20016;-58
2022/03/25 03:26:24;;;;;;;21.52;9.10;;;;;;;;;;5119818;28;20065;-56
2022/03/25 03:28:50;;;;;;;17.42;8.90;;;;;;;;;;5119996;28;20028;-56
2022/03/25 03:31:16;;;;;;;23.02;10.18;;;;;;;;;;5120450;28;20384;-56
2022/03/25 03:33:42;;;;;;;23.30;10.32;;;;;;;;;;5120109;28;20046;-56
2022/03/25 03:36:08;;;;;;;17.88;8.55;;;;;;;;;;5119698;28;20019;-56
2022/03/25 03:38:34;;;;;;;16.10;7.75;;;;;;;;;;5120075;28;20115;-57
2022/03/25 03:41:00;;;;;;;15.20;7.20;;;;;;;;;;5116132;28;20069;-55
2022/03/25 03:43:27;;;;;;;15.57;7.72;;;;;;;;;;5099614;28;20055;-56
2022/03/25 03:45:53;;;;;;;20.08;9.13;;;;;;;;;;5099046;28;20104;-56
2022/03/25 03:48:19;;;;;;;21.15;9.57;;;;;;;;;;5099263;28;20484;-57
2022/03/25 03:50:45;;;;;;;15.27;6.50;;;;;;;;;;5099448;28;20040;-56
2022/03/25 03:53:11;;;;;;;18.25;7.05;;;;;;;;;;5081385;28;20024;-58
2022/03/25 03:55:38;;;;;;;19.95;8.88;;;;;;;;;;5099331;28;20032;-58
2022/03/25 03:58:04;;;;;;;21.85;9.77;;;;;;;;;;5099469;28;20103;-58
2022/03/25 04:00:32;;;;;;;24.33;10.77;;;;;;;;;;5099033;28;20098;-58
2022/03/25 04:02:58;;;;;;;24.27;9.82;;;;;;;;;;5099376;28;20035;-57
2022/03/25 04:05:24;;;;;;;24.13;9.52;;;;;;;;;;5107700;28;20032;-56
2022/03/25 04:07:50;;;;;;;24.17;10.23;;;;;;;;;;5119715;28;20034;-58
2022/03/25 04:10:17;;;;;;;35.30;11.27;;;;;;;;;;5119733;28;20024;-56
2022/03/25 04:12:44;;;;;;;31.38;11.52;;;;;;;;;;5119570;28;20027;-56
2022/03/25 04:15:10;;;;;;;28.10;11.77;;;;;;;;;;5116561;28;20024;-56
2022/03/25 04:17:40;;;;;;;31.75;13.32;;;;;;;;;;5116214;28;20058;-55
2022/03/25 04:20:10;;;;;;;32.00;13.13;;;;;;;;;;5116859;28;20341;-55
2022/03/25 04:22:39;;;;;;;34.47;13.77;;;;;;;;;;5116467;28;20088;-55
2022/03/25 04:25:07;;;;;;;37.35;13.07;;;;;;;;;;5116221;28;20043;-56
2022/03/25 04:27:33;;;;;;;26.38;11.63;;;;;;;;;;5116267;28;20019;-55
2022/03/25 04:29:59;;;;;;;25.63;10.05;;;;;;;;;;5116256;28;20028;-55
2022/03/25 04:32:26;;;;;;;18.77;8.93;;;;;;;;;;5116149;28;20027;-55
2022/03/25 04:34:52;;;;;;;20.48;8.02;;;;;;;;;;5116070;28;20310;-56
2022/03/25 04:37:18;;;;;;;15.43;6.65;;;;;;;;;;5115768;28;20065;-54
2022/03/25 04:39:44;;;;;;;17.13;6.68;;;;;;;;;;5116167;28;20024;-53
2022/03/25 04:42:11;;;;;;;13.98;7.18;;;;;;;;;;5116237;28;20106;-56
2022/03/25 04:44:37;;;;;;;20.63;7.75;;;;;;;;;;5115666;28;20019;-57
2022/03/25 04:47:03;;;;;;;16.45;7.72;;;;;;;;;;5115673;28;20042;-55
2022/03/25 04:49:29;;;;;;;16.92;6.80;;;;;;;;;;5132031;27;20127;-54
2022/03/25 04:51:55;;;;;;;16.35;8.60;;;;;;;;;;5136425;27;20027;-55
2022/03/25 04:54:21;;;;;;;15.55;8.13;;;;;;;;;;5136119;27;20467;-55
2022/03/25 04:56:47;;;;;;;22.05;7.95;;;;;;;;;;5135934;27;20034;-54
2022/03/25 04:59:14;;;;;;;17.85;7.68;;;;;;;;;;5136316;27;20542;-54
2022/03/25 05:01:40;;;;;;;17.67;8.18;;;;;;;;;;5136046;27;20106;-55
2022/03/25 05:04:06;;;;;;;19.35;8.95;;;;;;;;;;5136481;27;20045;-58
2022/03/25 05:06:32;;;;;;;20.42;10.07;;;;;;;;;;5135444;27;20092;-57
2022/03/25 05:08:59;;;;;;;20.20;8.60;;;;;;;;;;5131135;27;20126;-56
2022/03/25 05:11:25;;;;;;;21.42;9.38;;;;;;;;;;5136034;27;20098;-58
2022/03/25 05:13:51;;;;;;;22.90;9.00;;;;;;;;;;5135811;27;20027;-58
2022/03/25 05:16:17;;;;;;;24.60;9.18;;;;;;;;;;5135216;27;20030;-54
2022/03/25 05:18:43;;;;;;;20.60;9.38;;;;;;;;;;5135654;27;20031;-55
2022/03/25 05:21:13;;;;;;;24.75;9.40;;;;;;;;;;5135897;27;20035;-53
2022/03/25 05:23:39;;;;;;;18.65;9.60;;;;;;;;;;5135792;27;20062;-57
2022/03/25 05:26:05;;;;;;;26.70;12.93;;;;;;;;;;5135011;27;20038;-58
2022/03/25 05:28:31;;;;;;;28.10;14.65;;;;;;;;;;5135916;27;20490;-55
2022/03/25 05:30:57;;;;;;;30.35;13.20;;;;;;;;;;5135840;27;20019;-57
2022/03/25 05:33:26;;;;;;;38.65;18.38;;;;;;;;;;5135329;27;20022;-58
2022/03/25 05:35:52;;;;;;;33.88;15.63;;;;;;;;;;5123190;27;20102;-55
2022/03/25 05:38:20;;;;;;;37.38;17.40;;;;;;;;;;5114854;28;20046;-55
2022/03/25 05:40:47;;;;;;;34.05;17.42;;;;;;;;;;5107877;28;20019;-55
2022/03/25 05:43:14;;;;;;;41.60;18.92;;;;;;;;;;5111570;28;20017;-59
2022/03/25 05:45:40;;;;;;;37.30;19.25;;;;;;;;;;5109544;28;20034;-57
2022/03/25 05:48:07;;;;;;;37.78;18.80;;;;;;;;;;5107315;28;20115;-58
2022/03/25 05:50:36;;;;;;;38.65;16.90;;;;;;;;;;5102504;28;20148;-54
2022/03/25 05:53:02;;;;;;;31.73;16.73;;;;;;;;;;5114503;28;20467;-57
2022/03/25 05:55:28;;;;;;;32.90;16.35;;;;;;;;;;5114440;28;20062;-56
2022/03/25 05:57:54;;;;;;;31.02;14.98;;;;;;;;;;5114370;28;20070;-58
2022/03/25 06:00:20;;;;;;;26.40;13.93;;;;;;;;;;5114518;28;20080;-53
2022/03/25 06:02:46;;;;;;;25.77;13.50;;;;;;;;;;5114520;28;20034;-55
2022/03/25 06:05:13;;;;;;;27.73;13.23;;;;;;;;;;5107777;28;20040;-53
2022/03/25 06:07:40;;;;;;;27.35;13.27;;;;;;;;;;5093693;28;20036;-55
2022/03/25 06:10:07;;;;;;;23.33;13.18;;;;;;;;;;5094100;28;20039;-52
2022/03/25 06:12:36;;;;;;;27.83;11.80;;;;;;;;;;5093942;28;20048;-53
2022/03/25 06:15:05;;;;;;;22.27;11.48;;;;;;;;;;5093206;28;20115;-46
2022/03/25 06:17:31;;;;;;;28.95;11.68;;;;;;;;;;5093318;28;20020;-50
2022/03/25 06:20:00;;;;;;;23.00;10.43;;;;;;;;;;5093913;28;20055;-51
2022/03/25 06:22:27;;;;;;;19.85;10.55;;;;;;;;;;5093805;28;20024;-52
2022/03/25 06:24:53;;;;;;;18.95;10.13;;;;;;;;;;5093708;28;20395;-53
2022/03/25 06:27:19;;;;;;;21.08;9.60;;;;;;;;;;5093322;28;20099;-49
2022/03/25 06:29:45;;;;;;;17.52;9.45;;;;;;;;;;5093712;28;20024;-53
2022/03/25 06:32:12;;;;;;;17.15;8.77;;;;;;;;;;5094016;28;20036;-53
2022/03/25 06:34:38;;;;;;;17.58;8.35;;;;;;;;;;5092814;28;20025;-49
2022/03/25 06:37:04;;;;;;;23.30;11.70;;;;;;;;;;5093220;28;20024;-53
2022/03/25 06:39:30;;;;;;;20.67;10.93;;;;;;;;;;5093041;28;20052;-55
2022/03/25 06:41:57;;;;;;;25.30;10.32;;;;;;;;;;5093830;28;20043;-51
2022/03/25 06:44:23;;;;;;;22.08;12.90;;;;;;;;;;5107641;28;20032;-51
2022/03/25 06:46:52;;;;;;;22.85;11.50;;;;;;;;;;5113388;28;20039;-52
2022/03/25 06:49:20;;;;;;;22.33;11.80;;;;;;;;;;5128254;27;20051;-52
2022/03/25 06:51:47;;;;;;;19.77;9.48;;;;;;;;;;5134648;27;20475;-55
2022/03/25 06:54:13;;;;;;;18.42;8.15;;;;;;;;;;5134053;27;20023;-56
2022/03/25 06:56:40;;;;;;;14.80;8.10;;;;;;;;;;5134055;27;20034;-48
2022/03/25 06:59:06;;;;;;;21.08;9.13;;;;;;;;;;5134008;27;20102;-47
2022/03/25 07:01:32;;;;;;;16.35;8.70;;;;;;;;;;5134162;28;20019;-48
2022/03/25 07:03:59;;;;;;;17.33;8.57;;;;;;;;;;5134186;28;20475;-47
2022/03/25 07:06:25;;;;;;;13.68;7.63;;;;;;;;;;5133750;28;20031;-47
2022/03/25 07:08:56;;;;;;;15.32;7.60;;;;;;;;;;5133980;28;20023;-47
2022/03/25 07:11:22;;;;;;;15.45;8.38;;;;;;;;;;5134055;28;20439;-47
2022/03/25 07:13:49;;;;;;;12.63;7.60;;;;;;;;;;5133686;28;20015;-53
2022/03/25 07:16:15;;;;;;;13.30;7.53;;;;;;;;;;5133691;28;20023;-55
2022/03/25 07:18:41;;;;;;;12.30;7.80;;;;;;;;;;5133518;28;20049;-54
2022/03/25 07:21:07;;;;;;;15.70;6.00;;;;;;;;;;5134140;28;20032;-55
2022/03/25 07:23:33;;;;;;;17.15;8.30;;;;;;;;;;5133808;28;20019;-54
2022/03/25 07:25:59;;;;;;;14.48;8.35;;;;;;;;;;5133891;28;20053;-54
2022/03/25 07:28:26;;;;;;;14.07;7.90;;;;;;;;;;5133544;28;20483;-54
2022/03/25 07:30:52;;;;;;;14.02;7.13;;;;;;;;;;5133676;28;20490;-55
2022/03/25 07:33:18;;;;;;;12.32;7.03;;;;;;;;;;5133996;28;20039;-54
2022/03/25 07:35:44;;;;;;;17.02;7.28;;;;;;;;;;5133848;28;20088;-54
2022/03/25 07:38:10;;;;;;;12.27;7.43;;;;;;;;;;5133413;28;20098;-55
2022/03/25 07:40:39;;;;;;;11.32;7.18;;;;;;;;;;5133875;28;20038;-54
2022/03/25 07:43:05;;;;;;;12.68;6.85;;;;;;;;;;5133618;28;20039;-56
2022/03/25 07:45:31;;;;;;;17.58;8.45;;;;;;;;;;5133802;28;20427;-55
2022/03/25 07:47:57;;;;;;;11.23;7.05;;;;;;;;;;5133070;28;20382;-55
2022/03/25 07:50:24;;;;;;;13.18;7.22;;;;;;;;;;5134442;27;20027;-54
2022/03/25 07:52:51;;;;;;;13.80;7.07;;;;;;;;;;5137729;27;20011;-53
2022/03/25 07:55:21;;;;;;;13.73;7.28;;;;;;;;;;5137431;27;20015;-52
2022/03/25 07:57:48;;;;;;;9.32;6.38;;;;;;;;;;5137252;27;20050;-53
2022/03/25 08:00:15;;;;;;;11.18;7.75;;;;;;;;;;5137611;27;20018;-54
2022/03/25 08:02:41;;;;;;;11.50;7.32;;;;;;;;;;5137619;27;20023;-54
2022/03/25 08:05:09;;;;;;;9.93;7.13;;;;;;;;;;5137363;27;20026;-55
2022/03/25 08:07:48;;;;;;;10.18;6.05;;;;;;;;;;5137009;27;20116;-54
2022/03/25 08:10:15;;;;;;;11.15;5.53;;;;;;;;;;5137326;27;20023;-54
2022/03/25 08:12:42;;;;;;;13.30;5.88;;;;;;;;;;5137214;27;20023;-54
2022/03/25 08:15:08;;;;;;;13.18;5.55;;;;;;;;;;5116535;27;20024;-53
2022/03/25 08:17:46;;;;;;;11.30;6.28;;;;;;;;;;5116504;28;20084;-55
2022/03/25 08:20:13;;;;;;;11.43;7.10;;;;;;;;;;5116515;28;20031;-54
2022/03/25 08:22:39;;;;;;;9.88;5.95;;;;;;;;;;5116575;28;20016;-54
2022/03/25 08:27:50;;;;;;;8.65;5.80;;;;;;;;;;5116048;28;20171;-54
2022/03/25 08:30:16;;;;;;;11.20;5.85;;;;;;;;;;5116647;28;20020;-54
2022/03/25 08:32:42;;;;;;;11.55;6.22;;;;;;;;;;5116412;28;20106;-54
2022/03/25 08:35:08;;;;;;;12.85;6.45;;;;;;;;;;5116055;28;20016;-55
2022/03/25 08:37:34;;;;;;;11.65;6.22;;;;;;;;;;5116083;28;20028;-55
2022/03/25 08:40:03;;;;;;;8.52;5.35;;;;;;;;;;5115939;28;20051;-53
2022/03/25 08:42:29;;;;;;;11.98;5.93;;;;;;;;;;5116307;28;20435;-54
2022/03/25 08:44:56;;;;;;;9.73;5.93;;;;;;;;;;5115827;28;20427;-53
2022/03/25 08:47:22;;;;;;;13.40;6.13;;;;;;;;;;5115628;28;20034;-54
2022/03/25 08:49:48;;;;;;;12.48;6.78;;;;;;;;;;5115790;28;20097;-54
2022/03/25 08:52:14;;;;;;;9.23;6.63;;;;;;;;;;5115987;28;20026;-54
2022/03/25 08:54:44;;;;;;;12.50;6.25;;;;;;;;;;5115594;28;20043;-54
2022/03/25 08:57:10;;;;;;;14.02;6.78;;;;;;;;;;5115545;28;20038;-54
2022/03/25 08:59:36;;;;;;;13.85;7.15;;;;;;;;;;5115502;28;20024;-54
2022/03/25 09:02:03;;;;;;;12.00;6.88;;;;;;;;;;5097123;28;20028;-54
2022/03/25 09:04:30;;;;;;;11.23;6.55;;;;;;;;;;5115917;28;20019;-53
2022/03/25 09:06:56;;;;;;;11.40;6.18;;;;;;;;;;5114857;28;20027;-53
2022/03/25 09:09:24;;;;;;;9.20;6.35;;;;;;;;;;5115326;28;20023;-53
2022/03/25 09:11:53;;;;;;;14.02;6.90;;;;;;;;;;5115712;28;20023;-54
2022/03/25 09:14:23;;;;;;;12.48;7.90;;;;;;;;;;5128166;27;20023;-54
2022/03/25 09:16:49;;;;;;;14.97;7.23;;;;;;;;;;5135937;27;20030;-54
2022/03/25 09:19:15;;;;;;;11.07;7.03;;;;;;;;;;5135627;27;20308;-54
2022/03/25 09:21:41;;;;;;;13.30;6.40;;;;;;;;;;5136375;27;20038;-54
2022/03/25 09:24:10;;;;;;;10.82;6.40;;;;;;;;;;5135617;27;20019;-54
2022/03/25 09:26:36;;;;;;;12.00;6.28;;;;;;;;;;5135936;27;20031;-54
2022/03/25 09:29:02;;;;;;;10.48;6.53;;;;;;;;;;5135440;27;20031;-54
2022/03/25 09:31:28;;;;;;;11.75;5.97;;;;;;;;;;5135781;27;20075;-54
2022/03/25 09:35:08;;;;;;;11.45;7.00;;;;;;;;;;5135880;27;20359;-54
2022/03/25 09:36:40;;;;;;;12.45;6.00;;;;;;;;;;5135264;27;20432;-55
2022/03/25 09:39:06;;;;;;;9.57;6.05;;;;;;;;;;5135069;27;20023;-55
2022/03/25 09:41:35;;;;;;;10.90;5.70;;;;;;;;;;5135821;27;20019;-55
2022/03/25 09:44:01;;;;;;;11.43;6.63;;;;;;;;;;5135364;27;20035;-54
2022/03/25 09:46:27;;;;;;;13.20;7.50;;;;;;;;;;5135436;27;20390;-54
2022/03/25 09:48:53;;;;;;;11.13;7.18;;;;;;;;;;5134818;27;20047;-54
2022/03/25 09:51:20;;;;;;;13.23;6.85;;;;;;;;;;5135279;27;20471;-54
2022/03/25 09:53:47;;;;;;;10.02;7.13;;;;;;;;;;5135236;27;20027;-54
2022/03/25 09:56:15;;;;;;;17.02;8.30;;;;;;;;;;5134633;27;20363;-54
2022/03/25 09:58:41;;;;;;;23.83;11.73;;;;;;;;;;5134176;27;20466;-55
2022/03/25 10:01:07;;;;;;;16.95;10.02;;;;;;;;;;5134905;27;20071;-53
2022/03/25 10:03:39;;;;;;;15.20;9.30;;;;;;;;;;5135232;27;20019;-55
2022/03/25 10:06:10;;;;;;;37.10;21.52;;;;;;;;;;5134691;27;20479;-59
2022/03/25 10:08:38;;;;;;;25.00;14.07;;;;;;;;;;5134513;27;20019;-58
2022/03/25 10:11:22;;;;;;;19.67;10.23;;;;;;;;;;5135002;27;20116;-58
2022/03/25 10:13:51;;;;;;;18.60;9.57;;;;;;;;;;5133825;27;20030;-59
2022/03/25 10:16:27;;;;;;;23.88;12.65;;;;;;;;;;5134746;27;20043;-57
2022/03/25 10:18:54;;;;;;;39.53;20.67;;;;;;;;;;5134532;27;20027;-57
2022/03/25 10:21:20;;;;;;;36.33;15.68;;;;;;;;;;5134882;27;20030;-57
2022/03/25 10:23:46;;;;;;;20.10;10.90;;;;;;;;;;5131139;27;20023;-60
2022/03/25 10:26:12;;;;;;;22.10;10.95;;;;;;;;;;5114136;28;20468;-56
2022/03/25 10:28:44;;;;;;;27.15;15.23;;;;;;;;;;5113969;28;20024;-57
2022/03/25 10:31:11;;;;;;;30.23;17.45;;;;;;;;;;5114261;28;20024;-56
2022/03/25 10:33:43;;;;;;;42.15;23.38;;;;;;;;;;5114127;28;20534;-56
2022/03/25 10:36:10;;;;;;;34.95;21.38;;;;;;;;;;5113862;28;20027;-56
2022/03/25 10:38:50;;;;;;;19.10;11.77;;;;;;;;;;5113749;28;20387;-66
2022/03/25 10:41:18;;;;;;;15.55;7.85;;;;;;;;;;5113801;28;20463;-61
2022/03/25 10:43:59;;;;;;;22.38;10.68;;;;;;;;;;5114404;27;20024;-62
2022/03/25 10:46:30;;;;;;;20.88;12.43;;;;;;;;;;5110912;28;20052;-60
2022/03/25 10:48:56;;;;;;;24.52;14.90;;;;;;;;;;5109095;28;20078;-65
2022/03/25 10:51:22;;;;;;;23.63;12.85;;;;;;;;;;5112087;28;20448;-59
2022/03/25 10:53:55;;;;;;;31.73;17.98;;;;;;;;;;5112029;28;20517;-56
2022/03/25 10:56:22;;;;;;;60.17;35.25;;;;;;;;;;5111897;28;20020;-59
2022/03/25 10:58:52;;;;;;;58.92;32.35;;;;;;;;;;5112956;28;20042;-57
2022/03/25 11:01:18;;;;;;;87.45;50.65;;;;;;;;;;5113616;28;20027;-55
2022/03/25 11:03:44;;;;;;;50.00;28.48;;;;;;;;;;5113344;28;20023;-58
2022/03/25 11:06:15;;;;;;;57.60;32.85;;;;;;;;;;5113197;28;20024;-58
2022/03/25 11:08:43;;;;;;;19.70;10.85;;;;;;;;;;5127290;28;20030;-57
2022/03/25 11:11:09;;;;;;;23.02;12.80;;;;;;;;;;5134284;28;20031;-61
2022/03/25 11:13:35;;;;;;;27.90;15.75;;;;;;;;;;5126705;28;20151;-64
2022/03/25 11:16:05;;;;;;;21.08;11.88;;;;;;;;;;5092045;28;20464;-61
2022/03/25 11:18:32;;;;;;;30.40;16.42;;;;;;;;;;5110654;28;20022;-61
2022/03/25 11:20:58;;;;;;;20.90;11.35;;;;;;;;;;5110832;28;20024;-60
2022/03/25 11:23:26;;;;;;;16.92;9.25;;;;;;;;;;5111238;28;20083;-58
2022/03/25 11:25:53;;;;;;;41.17;24.17;;;;;;;;;;5114641;28;20110;-59
2022/03/25 11:28:21;;;;;;;40.03;19.20;;;;;;;;;;5115880;28;20360;-59
2022/03/25 11:31:04;;;;;;;17.48;9.45;;;;;;;;;;5116103;28;20020;-59
2022/03/25 11:33:30;;;;;;;15.35;8.50;;;;;;;;;;5113862;28;20023;-59
2022/03/25 11:36:18;;;;;;;14.80;8.52;;;;;;;;;;5115382;28;20094;-58
2022/03/25 11:38:44;;;;;;;17.75;10.02;;;;;;;;;;5115259;28;20030;-58
2022/03/25 11:41:26;;;;;;;23.60;11.77;;;;;;;;;;5115999;27;20020;-58
2022/03/25 11:44:11;;;;;;;22.98;8.35;;;;;;;;;;5113984;27;20030;-58
2022/03/25 11:46:57;;;;;;;17.52;10.48;;;;;;;;;;5113764;28;20035;-60
2022/03/25 11:49:23;;;;;;;36.45;15.77;;;;;;;;;;5089717;27;20047;-59
2022/03/25 11:51:49;;;;;;;25.85;12.50;;;;;;;;;;5093125;28;20028;-53
2022/03/25 11:54:38;;;;;;;16.92;9.65;;;;;;;;;;5093044;27;20016;-54
2022/03/25 11:57:05;;;;;;;20.05;7.30;;;;;;;;;;5009031;28;20087;-52
2022/03/25 11:59:48;;;;;;;17.38;8.73;;;;;;;;;;5008530;28;20038;-52
2022/03/25 12:02:23;;;;;;;12.50;6.78;;;;;;;;;;5011302;28;20037;-53
2022/03/25 12:04:50;;;;;;;24.17;13.60;;;;;;;;;;5008847;28;20025;-52
2022/03/25 12:07:16;;;;;;;13.68;7.82;;;;;;;;;;5002520;28;20066;-53
2022/03/25 12:09:46;;;;;;;24.17;13.18;;;;;;;;;;5003471;28;20108;-52
2022/03/25 12:12:12;;;;;;;21.67;11.15;;;;;;;;;;5004581;28;20021;-53
2022/03/25 12:14:58;;;;;;;12.05;7.43;;;;;;;;;;5004424;28;20487;-54
2022/03/25 12:17:25;;;;;;;11.93;7.20;;;;;;;;;;5003642;28;20042;-54
2022/03/25 12:19:53;;;;;;;17.67;7.88;;;;;;;;;;5006511;28;20053;-56
2022/03/25 12:22:19;;;;;;;14.32;7.68;;;;;;;;;;4984848;28;20340;-51
2022/03/25 12:24:49;;;;;;;14.77;9.23;;;;;;;;;;5009433;28;20038;-50
2022/03/25 12:27:15;;;;;;;15.15;8.32;;;;;;;;;;5004023;28;20054;-52
2022/03/25 12:29:42;;;;;;;18.40;8.98;;;;;;;;;;5000979;28;20108;-52
2022/03/25 12:32:13;;;;;;;15.55;7.82;;;;;;;;;;5001271;28;20084;-54
2022/03/25 12:34:39;;;;;;;19.95;8.27;;;;;;;;;;5059795;28;20028;-51
2022/03/25 12:37:07;;;;;;;14.27;7.43;;;;;;;;;;5083653;27;20138;-49
2022/03/25 12:39:33;;;;;;;19.20;8.45;;;;;;;;;;5084708;27;20431;-53
2022/03/25 12:41:59;;;;;;;21.50;10.38;;;;;;;;;;5084540;28;20062;-52
2022/03/25 12:44:26;;;;;;;18.00;10.55;;;;;;;;;;5085051;28;20023;-51
2022/03/25 12:46:53;;;;;;;17.35;7.55;;;;;;;;;;5066187;28;20383;-51
2022/03/25 12:49:19;;;;;;;16.40;7.95;;;;;;;;;;5084508;27;20066;-51
2022/03/25 12:51:55;;;;;;;16.00;8.98;;;;;;;;;;5084655;28;20469;-53
2022/03/25 12:54:21;;;;;;;17.13;9.52;;;;;;;;;;5084730;27;20016;-50
2022/03/25 12:56:55;;;;;;;16.15;9.05;;;;;;;;;;5084476;28;20032;-52
2022/03/25 12:59:28;;;;;;;14.02;7.97;;;;;;;;;;5086201;27;20144;-50
2022/03/25 13:01:54;;;;;;;17.23;9.02;;;;;;;;;;5083931;27;20576;-50
2022/03/25 13:04:30;;;;;;;14.48;7.78;;;;;;;;;;5084801;27;20380;-51
2022/03/25 13:06:59;;;;;;;13.68;7.35;;;;;;;;;;5083604;28;20616;-51
2022/03/25 13:09:26;;;;;;;11.10;7.13;;;;;;;;;;5084019;27;20059;-51
2022/03/25 13:11:53;;;;;;;14.27;7.43;;;;;;;;;;5083988;27;20425;-51
2022/03/25 13:14:21;;;;;;;19.85;9.50;;;;;;;;;;5084057;28;20043;-53
2022/03/25 13:16:50;;;;;;;17.58;6.85;;;;;;;;;;5083701;27;20044;-54
2022/03/25 13:19:16;;;;;;;17.20;10.60;;;;;;;;;;5075125;28;20198;-52
2022/03/25 13:21:43;;;;;;;13.60;7.25;;;;;;;;;;5083688;28;20028;-50
2022/03/25 13:24:10;;;;;;;13.85;8.25;;;;;;;;;;5083841;28;20031;-53
2022/03/25 13:26:37;;;;;;;26.80;12.98;;;;;;;;;;5084940;28;20159;-53
2022/03/25 13:29:05;;;;;;;14.60;8.35;;;;;;;;;;5086303;28;20431;-52
2022/03/25 13:31:31;;;;;;;11.20;6.47;;;;;;;;;;5083778;27;20073;-53
2022/03/25 13:33:57;;;;;;;17.80;8.75;;;;;;;;;;5084087;27;20028;-53
2022/03/25 13:36:28;;;;;;;15.60;8.48;;;;;;;;;;5084189;27;20027;-53
2022/03/25 13:38:54;;;;;;;13.35;6.90;;;;;;;;;;5083380;28;20139;-53
2022/03/25 13:41:25;;;;;;;14.90;8.23;;;;;;;;;;5083211;28;20302;-54
2022/03/25 13:43:55;;;;;;;14.77;8.93;;;;;;;;;;5084519;28;20183;-53
2022/03/25 13:46:21;;;;;;;12.87;8.00;;;;;;;;;;5083071;28;20422;-53
2022/03/25 13:48:51;;;;;;;12.73;7.85;;;;;;;;;;5083104;27;20055;-53
2022/03/25 13:51:17;;;;;;;9.55;7.15;;;;;;;;;;5083506;28;20028;-53
2022/03/25 13:53:43;;;;;;;10.80;6.50;;;;;;;;;;5083697;28;20023;-53
2022/03/25 13:56:13;;;;;;;12.80;6.95;;;;;;;;;;5083245;27;20016;-54
2022/03/25 13:58:39;;;;;;;16.98;8.77;;;;;;;;;;5082835;27;20020;-53
2022/03/25 14:01:08;;;;;;;11.60;7.07;;;;;;;;;;5082779;28;20070;-54
2022/03/25 14:03:37;;;;;;;10.55;6.95;;;;;;;;;;5083879;28;20443;-53
2022/03/25 14:06:10;;;;;;;10.00;6.05;;;;;;;;;;5084368;28;20034;-52
2022/03/25 14:08:36;;;;;;;8.60;5.65;;;;;;;;;;5083078;28;20023;-52
2022/03/25 14:11:02;;;;;;;14.23;6.20;;;;;;;;;;5082907;27;20498;-52
2022/03/25 14:13:28;;;;;;;15.95;8.43;;;;;;;;;;5082997;28;20027;-52
2022/03/25 14:15:54;;;;;;;12.98;7.43;;;;;;;;;;5084181;27;20542;-52
2022/03/25 14:18:22;;;;;;;9.60;5.88;;;;;;;;;;5082505;28;20028;-52
2022/03/25 14:20:48;;;;;;;8.82;6.03;;;;;;;;;;5082602;28;20163;-53
2022/03/25 14:23:19;;;;;;;8.57;5.38;;;;;;;;;;5084050;27;20016;-52
2022/03/25 14:25:45;;;;;;;14.55;6.25;;;;;;;;;;5082879;27;20039;-52
2022/03/25 14:28:14;;;;;;;12.65;6.63;;;;;;;;;;5082755;28;20310;-53